Time;durP1;ratioP1;P1;durP2;ratioP2;P2;SDS_P1;SDS_P2;PMS_P1;PMS_P2;Temp;Humidity;BMP_temperature;BMP_pressure;BME280_temperature;BME280_humidity;BME280_pressure;Samples;Min_cycle;Max_cycle;Signal;HPM_P1;HPM_P2
2022/03/24 04:16:39;;;;;;;;;62.33;50.67;;;;;;;;6488723;39;14889;-55
2022/03/24 04:22:42;;;;;;;;;57.00;48.33;;;;;;;;6492359;46;8872;-54
2022/03/24 04:28:44;;;;;;;;;61.50;49.00;;;;;;;;6492300;47;8898;-54
2022/03/24 04:34:46;;;;;;;;;56.67;47.67;;;;;;;;6492486;39;8856;-53
2022/03/24 04:40:52;;;;;;;;;61.00;52.00;;;;;;;;6491892;39;8919;-55
2022/03/24 04:46:54;;;;;;;;;64.33;50.33;;;;;;;;6493066;39;8868;-54
2022/03/24 04:52:57;;;;;;;;;51.00;43.67;;;;;;;;6491802;31;8911;-54
2022/03/24 04:58:59;;;;;;;;;63.67;51.33;;;;;;;;6493002;39;8990;-55
2022/03/24 05:05:02;;;;;;;;;58.33;48.00;;;;;;;;6486119;39;8935;-56
2022/03/24 05:11:04;;;;;;;;;65.00;50.33;;;;;;;;6491811;46;8996;-53
2022/03/24 05:17:08;;;;;;;;;60.50;49.00;;;;;;;;6494252;39;8872;-55
2022/03/24 05:23:10;;;;;;;;;58.00;49.75;;;;;;;;6494905;39;8918;-53
2022/03/24 05:29:12;;;;;;;;;66.25;49.50;;;;;;;;6493854;39;8802;-52
2022/03/24 05:35:15;;;;;;;;;58.25;50.50;;;;;;;;6494494;31;8842;-54
2022/03/24 05:41:17;;;;;;;;;62.67;52.33;;;;;;;;6492857;46;9046;-54
2022/03/24 05:47:19;;;;;;;;;61.00;53.50;;;;;;;;6494145;39;8952;-55
2022/03/24 05:53:24;;;;;;;;;69.25;57.75;;;;;;;;6494031;31;9027;-54
2022/03/24 05:59:27;;;;;;;;;56.00;49.75;;;;;;;;6492506;39;8936;-54
2022/03/24 06:05:30;;;;;;;;;64.25;49.75;;;;;;;;6492464;46;8917;-53
2022/03/24 06:11:35;;;;;;;;;67.50;55.25;;;;;;;;6492454;39;8941;-55
2022/03/24 06:17:39;;;;;;;;;67.75;57.00;;;;;;;;6492764;31;8950;-53
2022/03/24 06:23:44;;;;;;;;;66.25;55.25;;;;;;;;6491250;39;9488;-52
2022/03/24 06:29:47;;;;;;;;;70.00;55.75;;;;;;;;6491990;46;8994;-52
2022/03/24 06:35:49;;;;;;;;;65.25;52.25;;;;;;;;5873356;36;10002482;-54
2022/03/24 06:41:53;;;;;;;;;63.25;50.25;;;;;;;;6491374;31;9070;-55
2022/03/24 06:47:55;;;;;;;;;64.00;50.00;;;;;;;;6491183;46;8862;-57
2022/03/24 06:53:58;;;;;;;;;59.00;49.50;;;;;;;;6490773;39;8971;-56
2022/03/24 07:00:03;;;;;;;;;54.25;46.25;;;;;;;;6491156;39;8936;-54
2022/03/24 07:06:05;;;;;;;;;58.00;46.50;;;;;;;;6491353;46;9002;-56
2022/03/24 07:12:08;;;;;;;;;48.50;44.00;;;;;;;;6489995;39;9012;-53
2022/03/24 07:18:10;;;;;;;;;58.25;48.50;;;;;;;;6491537;46;9092;-53
2022/03/24 07:24:14;;;;;;;;;53.75;46.00;;;;;;;;6490365;39;8882;-55
2022/03/24 07:30:16;;;;;;;;;53.25;46.75;;;;;;;;6491015;46;8920;-53
2022/03/24 07:36:25;;;;;;;;;57.75;45.00;;;;;;;;6489294;39;8953;-53
2022/03/24 07:42:28;;;;;;;;;65.75;48.75;;;;;;;;6490247;31;9586;-54
2022/03/24 07:48:32;;;;;;;;;58.25;46.25;;;;;;;;6491255;39;8878;-52
2022/03/24 07:54:56;;;;;;;;;63.50;51.00;;;;;;;;6489852;39;8956;-53
2022/03/24 08:00:59;;;;;;;;;50.25;41.50;;;;;;;;6488991;39;8982;-52
2022/03/24 08:07:02;;;;;;;;;47.50;42.00;;;;;;;;6490099;39;8995;-56
2022/03/24 08:13:04;;;;;;;;;44.50;38.00;;;;;;;;6489256;39;9032;-53
2022/03/24 08:19:07;;;;;;;;;49.00;41.25;;;;;;;;6490302;39;8992;-55
2022/03/24 08:25:10;;;;;;;;;43.50;37.00;;;;;;;;6490603;31;8961;-57
2022/03/24 08:31:14;;;;;;;;;36.00;33.50;;;;;;;;6488988;31;8987;-54
2022/03/24 08:37:17;;;;;;;;;37.75;36.00;;;;;;;;6490033;47;8930;-55
2022/03/24 08:43:19;;;;;;;;;43.00;39.00;;;;;;;;6489767;39;8952;-54
2022/03/24 08:49:23;;;;;;;;;39.00;35.25;;;;;;;;6490519;31;8996;-53
2022/03/24 08:55:26;;;;;;;;;40.67;35.33;;;;;;;;6491187;39;9645;-54
2022/03/24 09:01:29;;;;;;;;;33.00;30.33;;;;;;;;6491565;39;9547;-56
2022/03/24 09:07:33;;;;;;;;;35.00;32.67;;;;;;;;6490850;39;9982;-57
2022/03/24 09:13:37;;;;;;;;;20.00;19.00;;;;;;;;6492025;39;9008;-56
2022/03/24 09:19:42;;;;;;;;;27.33;26.67;;;;;;;;6492460;31;8976;-56
2022/03/24 09:25:45;;;;;;;;;22.00;20.67;;;;;;;;6490754;39;8942;-56
2022/03/24 09:31:48;;;;;;;;;37.00;34.00;;;;;;;;6492575;31;8931;-54
2022/03/24 09:37:51;;;;;;;;;46.00;40.25;;;;;;;;6491705;39;8891;-55
2022/03/24 09:43:54;;;;;;;;;38.00;33.67;;;;;;;;6492284;39;8959;-56
2022/03/24 09:49:57;;;;;;;;;27.00;27.00;;;;;;;;6491934;31;8930;-55
2022/03/24 09:55:59;;;;;;;;;29.00;28.67;;;;;;;;6491298;39;8932;-57
2022/03/24 10:02:04;;;;;;;;;23.00;22.00;;;;;;;;6490834;46;8943;-54
2022/03/24 10:08:07;;;;;;;;;27.33;20.33;;;;;;;;6491465;39;8997;-54
2022/03/24 10:14:11;;;;;;;;;27.00;25.33;;;;;;;;6489902;46;8970;-55
2022/03/24 10:20:16;;;;;;;;;26.67;23.00;;;;;;;;6490650;31;9775;-56
2022/03/24 10:26:19;;;;;;;;;24.00;22.67;;;;;;;;6491662;39;9021;-55
2022/03/24 10:32:27;;;;;;;;;28.00;28.00;;;;;;;;6492052;31;8931;-55
2022/03/24 10:38:34;;;;;;;;;22.33;22.33;;;;;;;;6490832;39;8946;-54
2022/03/24 10:44:36;;;;;;;;;26.00;23.67;;;;;;;;6491671;39;8934;-53
2022/03/24 10:50:42;;;;;;;;;16.00;16.00;;;;;;;;6489884;39;9033;-55
2022/03/24 10:56:56;;;;;;;;;25.00;21.67;;;;;;;;6492145;39;8934;-56
2022/03/24 11:03:00;;;;;;;;;19.67;19.67;;;;;;;;6491363;39;9010;-56
2022/03/24 11:09:04;;;;;;;;;22.67;21.33;;;;;;;;6491393;31;9002;-53
2022/03/24 11:15:09;;;;;;;;;30.33;27.33;;;;;;;;6492076;31;8958;-58
2022/03/24 11:21:51;;;;;;;;;24.33;23.67;;;;;;;;6490887;39;8933;-57
2022/03/24 11:27:57;;;;;;;;;21.67;20.33;;;;;;;;6490416;39;8968;-57
2022/03/24 11:34:01;;;;;;;;;19.67;17.67;;;;;;;;6490904;31;8926;-55
2022/03/24 11:40:04;;;;;;;;;27.67;23.00;;;;;;;;6490621;46;8934;-56
2022/03/24 11:46:21;;;;;;;;;23.00;21.67;;;;;;;;6491450;39;8908;-56
2022/03/24 11:52:24;;;;;;;;;29.67;25.67;;;;;;;;6490961;31;9518;-56
2022/03/24 11:58:55;;;;;;;;;24.67;23.00;;;;;;;;6491096;31;8923;-57
2022/03/24 12:04:59;;;;;;;;;27.67;27.67;;;;;;;;6489794;39;8949;-53
2022/03/24 12:11:38;;;;;;;;;20.00;20.00;;;;;;;;6491104;39;8939;-53
2022/03/24 12:18:02;;;;;;;;;22.67;22.33;;;;;;;;6490536;31;9010;-54
2022/03/24 12:24:07;;;;;;;;;30.33;28.33;;;;;;;;6488244;39;8945;-55
2022/03/24 12:30:15;;;;;;;;;19.67;19.67;;;;;;;;6490826;39;9133;-56
2022/03/24 12:36:37;;;;;;;;;28.00;26.67;;;;;;;;6490751;39;8922;-59
2022/03/24 12:42:54;;;;;;;;;26.00;24.00;;;;;;;;6490271;47;8917;-57
2022/03/24 12:49:05;;;;;;;;;25.00;24.00;;;;;;;;6490229;39;9593;-56
2022/03/24 12:55:27;;;;;;;;;25.00;23.67;;;;;;;;6491234;31;8985;-56
2022/03/24 13:01:30;;;;;;;;;25.00;23.00;;;;;;;;6489700;47;8966;-56
2022/03/24 13:07:32;;;;;;;;;23.00;21.33;;;;;;;;6490068;39;8902;-57
2022/03/24 13:13:48;;;;;;;;;28.33;24.33;;;;;;;;6490145;47;9031;-56
2022/03/24 13:19:51;;;;;;;;;22.33;19.33;;;;;;;;6489745;31;9046;-56
2022/03/24 13:25:53;;;;;;;;;22.00;20.00;;;;;;;;6489934;31;8912;-55
2022/03/24 13:32:17;;;;;;;;;16.00;15.00;;;;;;;;6488885;31;9082;-54
2022/03/24 13:38:21;;;;;;;;;14.67;14.67;;;;;;;;6492445;46;8920;-54
2022/03/24 13:44:25;;;;;;;;;16.67;16.67;;;;;;;;6518428;36;8938;-53
2022/03/24 13:50:29;;;;;;;;;21.33;21.00;;;;;;;;6492400;39;8947;-56
2022/03/24 13:56:32;;;;;;;;;23.33;20.67;;;;;;;;6492071;46;8938;-57
2022/03/24 14:02:35;;;;;;;;;21.33;19.33;;;;;;;;6491801;39;8892;-54
2022/03/24 14:08:50;;;;;;;;;23.33;21.33;;;;;;;;6492174;46;9001;-53
2022/03/24 14:14:54;;;;;;;;;29.00;25.33;;;;;;;;6491219;39;9073;-54
2022/03/24 14:20:56;;;;;;;;;24.00;24.00;;;;;;;;6491274;46;8905;-58
2022/03/24 14:27:06;;;;;;;;;26.33;25.33;;;;;;;;6491842;39;8916;-57
2022/03/24 14:33:18;;;;;;;;;29.00;26.67;;;;;;;;6490538;39;8944;-54
2022/03/24 14:39:21;;;;;;;;;25.67;23.33;;;;;;;;6489939;39;8910;-55
2022/03/24 14:45:23;;;;;;;;;29.00;27.00;;;;;;;;6487316;39;8928;-56
2022/03/24 14:51:33;;;;;;;;;26.00;25.33;;;;;;;;6487826;39;8858;-57
2022/03/24 14:57:36;;;;;;;;;26.00;25.33;;;;;;;;6491226;39;9407;-56
2022/03/24 15:03:39;;;;;;;;;29.00;28.00;;;;;;;;6490972;39;8950;-56
2022/03/24 15:09:42;;;;;;;;;35.33;32.00;;;;;;;;6491336;31;8936;-56
2022/03/24 15:16:05;;;;;;;;;29.00;24.33;;;;;;;;6490559;46;8908;-56
2022/03/24 15:22:09;;;;;;;;;35.00;31.67;;;;;;;;6490694;39;8887;-56
2022/03/24 15:28:13;;;;;;;;;29.33;26.00;;;;;;;;6491464;31;8904;-57
2022/03/24 15:34:20;;;;;;;;;30.67;28.33;;;;;;;;6490125;31;8934;-56
2022/03/24 15:40:23;;;;;;;;;31.00;28.67;;;;;;;;6489598;46;8864;-54
2022/03/24 15:46:25;;;;;;;;;34.33;30.67;;;;;;;;6490000;39;9577;-55
2022/03/24 15:52:28;;;;;;;;;32.33;29.00;;;;;;;;6490204;31;8974;-56
2022/03/24 15:58:32;;;;;;;;;28.33;28.33;;;;;;;;6490248;39;8866;-56
2022/03/24 16:04:34;;;;;;;;;28.33;26.67;;;;;;;;6491046;31;8856;-55
2022/03/24 16:10:37;;;;;;;;;30.00;27.67;;;;;;;;6489774;31;8928;-56
2022/03/24 16:16:43;;;;;;;;;32.67;27.00;;;;;;;;6489687;39;9039;-55
2022/03/24 16:22:46;;;;;;;;;26.33;25.67;;;;;;;;6489117;39;8845;-56
2022/03/24 16:28:51;;;;;;;;;33.50;31.00;;;;;;;;6489280;31;8886;-55
2022/03/24 16:34:54;;;;;;;;;35.00;33.67;;;;;;;;6489120;39;8909;-56
2022/03/24 16:40:56;;;;;;;;;36.67;33.00;;;;;;;;6488652;39;8999;-56
2022/03/24 16:46:59;;;;;;;;;36.25;34.50;;;;;;;;6490006;39;8943;-56
2022/03/24 16:53:04;;;;;;;;;31.33;30.33;;;;;;;;6489437;39;8902;-56
2022/03/24 16:59:08;;;;;;;;;34.75;34.00;;;;;;;;6489333;31;9734;-54
2022/03/24 17:05:11;;;;;;;;;43.00;39.25;;;;;;;;6490534;31;8890;-55
2022/03/24 17:11:14;;;;;;;;;41.00;36.25;;;;;;;;6491216;46;8864;-56
2022/03/24 17:17:18;;;;;;;;;36.50;34.00;;;;;;;;6491315;46;8940;-55
2022/03/24 17:23:21;;;;;;;;;33.25;30.75;;;;;;;;6491696;39;8955;-59
2022/03/24 17:29:23;;;;;;;;;35.25;33.50;;;;;;;;6491167;31;8924;-59
2022/03/24 17:35:27;;;;;;;;;39.00;37.75;;;;;;;;6508384;36;8998;-55
2022/03/24 17:41:29;;;;;;;;;44.75;36.75;;;;;;;;6491971;31;8865;-55
2022/03/24 17:47:32;;;;;;;;;28.00;21.50;;;;;;;;6491567;39;8880;-55
2022/03/24 17:53:35;;;;;;;;;49.50;39.25;;;;;;;;6491404;46;8911;-54
2022/03/24 17:59:38;;;;;;;;;54.75;42.50;;;;;;;;6491952;31;8907;-56
2022/03/24 18:05:43;;;;;;;;;42.75;38.00;;;;;;;;6491579;39;8845;-54
2022/03/24 18:11:45;;;;;;;;;56.00;44.75;;;;;;;;6491672;39;8955;-53
2022/03/24 18:17:47;;;;;;;;;51.25;43.75;;;;;;;;6490950;39;8924;-57
2022/03/24 18:23:50;;;;;;;;;49.75;40.00;;;;;;;;6490686;39;8840;-57
2022/03/24 18:29:53;;;;;;;;;54.00;46.75;;;;;;;;6491258;39;9013;-57
2022/03/24 18:35:57;;;;;;;;;63.00;51.25;;;;;;;;6490498;31;8864;-55
2022/03/24 18:42:01;;;;;;;;;64.50;53.75;;;;;;;;6491434;39;8828;-54
2022/03/24 18:48:05;;;;;;;;;61.75;50.25;;;;;;;;6490602;46;8863;-53
2022/03/24 18:54:08;;;;;;;;;64.00;52.50;;;;;;;;6490460;39;8963;-53
2022/03/24 19:00:15;;;;;;;;;62.00;48.75;;;;;;;;6490344;39;8907;-57
2022/03/24 19:06:18;;;;;;;;;62.50;49.25;;;;;;;;6492083;31;8990;-54
2022/03/24 19:12:20;;;;;;;;;64.00;50.25;;;;;;;;6490999;39;8967;-58
2022/03/24 19:18:25;;;;;;;;;63.25;49.75;;;;;;;;6491184;39;8829;-56
2022/03/24 19:24:29;;;;;;;;;59.25;48.00;;;;;;;;6490749;39;8983;-52
2022/03/24 19:30:32;;;;;;;;;62.25;48.25;;;;;;;;6490073;46;8904;-57
2022/03/24 19:36:35;;;;;;;;;62.25;48.75;;;;;;;;6490345;39;9488;-53
2022/03/24 19:42:38;;;;;;;;;48.00;40.50;;;;;;;;6490529;46;8852;-53
2022/03/24 19:48:51;;;;;;;;;50.25;43.75;;;;;;;;6490213;46;8991;-53
2022/03/24 19:54:53;;;;;;;;;58.25;46.50;;;;;;;;6490066;31;8905;-53
2022/03/24 20:00:55;;;;;;;;;48.25;41.00;;;;;;;;6490589;39;8999;-56
2022/03/24 20:06:58;;;;;;;;;47.00;41.50;;;;;;;;6489915;31;8961;-55
2022/03/24 20:13:01;;;;;;;;;45.75;42.00;;;;;;;;6489852;46;8969;-53
2022/03/24 20:19:04;;;;;;;;;57.25;41.50;;;;;;;;6490056;39;8873;-56
2022/03/24 20:25:07;;;;;;;;;46.00;41.00;;;;;;;;6490174;47;8879;-54
2022/03/24 20:31:11;;;;;;;;;41.00;36.75;;;;;;;;6489653;39;8971;-53
2022/03/24 20:37:13;;;;;;;;;38.00;36.50;;;;;;;;6489619;39;9559;-54
2022/03/24 20:43:20;;;;;;;;;35.25;35.25;;;;;;;;6490328;46;9093;-50
2022/03/24 20:49:23;;;;;;;;;38.75;36.50;;;;;;;;6490805;46;8848;-53
2022/03/24 20:55:27;;;;;;;;;36.00;34.50;;;;;;;;6492413;39;8920;-52
2022/03/24 21:01:30;;;;;;;;;32.25;30.25;;;;;;;;6491911;31;8887;-52
2022/03/24 21:07:34;;;;;;;;;44.00;35.25;;;;;;;;6491371;39;8945;-53
2022/03/24 21:13:36;;;;;;;;;43.00;38.00;;;;;;;;6491560;46;9079;-55
2022/03/24 21:19:38;;;;;;;;;36.00;34.25;;;;;;;;6491170;46;8844;-53
2022/03/24 21:25:42;;;;;;;;;33.00;30.50;;;;;;;;6492156;31;8935;-51
2022/03/24 21:31:45;;;;;;;;;29.50;25.50;;;;;;;;6491515;31;8932;-53
2022/03/24 21:37:48;;;;;;;;;24.75;21.00;;;;;;;;6491329;46;9084;-54
2022/03/24 21:43:51;;;;;;;;;33.33;29.33;;;;;;;;6491403;39;8961;-54
2022/03/24 21:49:54;;;;;;;;;27.50;27.50;;;;;;;;6491041;46;8880;-54
2022/03/24 21:55:56;;;;;;;;;27.00;27.00;;;;;;;;6491084;46;8920;-53
2022/03/24 22:01:59;;;;;;;;;27.75;25.00;;;;;;;;6490943;46;8981;-55
2022/03/24 22:08:03;;;;;;;;;28.25;24.75;;;;;;;;6490940;46;8864;-55
2022/03/24 22:14:07;;;;;;;;;29.00;26.75;;;;;;;;6491809;31;9170;-53
2022/03/24 22:20:10;;;;;;;;;32.00;31.00;;;;;;;;6491401;39;8881;-52
2022/03/24 22:26:12;;;;;;;;;26.00;26.00;;;;;;;;6491633;39;8847;-53
2022/03/24 22:32:15;;;;;;;;;29.25;27.00;;;;;;;;6490421;46;8965;-53
2022/03/24 22:38:18;;;;;;;;;29.75;28.25;;;;;;;;6490576;31;8879;-51
2022/03/24 22:44:23;;;;;;;;;26.00;26.00;;;;;;;;6491562;39;9295;-52
2022/03/24 22:50:25;;;;;;;;;25.75;25.75;;;;;;;;6490917;39;9014;-53
2022/03/24 22:56:29;;;;;;;;;32.25;27.25;;;;;;;;6490403;46;8899;-54
2022/03/24 23:02:32;;;;;;;;;26.25;25.50;;;;;;;;6490925;39;8899;-53
2022/03/24 23:08:36;;;;;;;;;31.75;27.00;;;;;;;;6490821;39;8941;-54
2022/03/24 23:14:38;;;;;;;;;28.25;23.75;;;;;;;;6491036;39;9018;-54
2022/03/24 23:20:40;;;;;;;;;27.50;25.25;;;;;;;;6490491;39;8865;-52
2022/03/24 23:26:44;;;;;;;;;25.00;23.75;;;;;;;;6490963;31;8844;-51
2022/03/24 23:32:46;;;;;;;;;28.00;27.75;;;;;;;;6490434;39;8924;-50
2022/03/24 23:38:51;;;;;;;;;25.50;23.50;;;;;;;;6490753;39;8867;-51
2022/03/24 23:44:53;;;;;;;;;27.00;23.25;;;;;;;;6490530;31;8865;-54
2022/03/24 23:50:57;;;;;;;;;27.25;23.50;;;;;;;;6489507;39;8868;-53
2022/03/24 23:57:02;;;;;;;;;28.75;25.25;;;;;;;;6490631;46;8923;-55
